Portada
METAR-TAF:

METAR-TAF

Aeroports :

Phetchabun, Tailàndia

latitud: 16-40-33N, longitud: 101-11-42E, altitud: 137 m

Observació

L'informe es va fer fa 47 minuts, a les 01:00 UTC
Vent 2 kt amb direcció variable
Temperatura 25°C
Humitat 83%
Pressió 1010 hPa
Visibilitat: 6000 m

METAR: VTPB 300100Z VRB02KT 6000 NSC 25/22 Q1010 NOSIG

Hora: 08:47 (01:47 UTC)

Pronòstic

L'informe es va fer fa 2 hores i 47 minuts, a les 23:00 UTC
Pronòstic vàlid del 30 a les 00 UTC al 30 a les 24 UTC
Vent 5 kt del Sud/Sud-Est
Visibilitat: 7000 m

TAF: VTPB 292300Z 3000/3024 16005KT 7000 NSC

Observacions i pronòstics meteorològics de més de 4000 aeroports (METAR i TAF).

Les estacions disponibles són els punts grocs i vermells al mapa.

Posi el ratolí al punt desitjat per veure el nom de l'estació.

Feu clic per veure les observacions i els pronòstics meteorològics.

Per canviar el mapa: feu clic els botons verds amb una creu de color negre per apropar; al botó verd amb un guió per allunyar la imatge; o en les fletxes verdes per a mapes adjacents.


METAR-TAF: